Payson, UT

6:41 PM MDT on October 24, 2014 (GMT -0600)
MesoWest Genola UT US FGNet | Change Station
CLOSE
Current Station
Personal Weather Station
Location: Santaquin, UT
Elevation: 4660 ft
Nearby Weather Stations

Elev 4660 ft 40.04 °N, 111.83 °W | Updated 41 minutes ago

Clear
Clear
75.0 °F
Feels Like 75.0 °F
N
0.0
Wind Variable Wind from SSE
Gusts 3.0 mph

Today
High -- | Low -- °F
--% Chance of Precip.
Yesterday
High -- | Low -- °F
Precip. -- in
7:47 AM 6:34 PM
New Moon, 1% visible
Pressure 30.12 in
Visibility 15.0 miles
Clouds Clear
Dew Point 35.0 °F
Humidity 23%
Rainfall -999.00 in
Snow Depth 0 in
UV 0 out of 12
Pollen 1.80 out of 12
Air Quality Not available.
Flu Activity Sporadic
METAR KPVU 242357Z 00000KT 15SM SKC 24/00 A3012

More Conditions Fewer Conditions

Pressure 30.12 in
Visibility 15.0 miles
Clouds Clear
Dew Point 35.0 °F
Humidity 23%
Rainfall -999.00 in
Snow Depth 0 in
UV 0 out of 12
Pollen 1.80 out of 12
Air Quality Not available.
Flu Activity Sporadic
METAR KPVU 242357Z 00000KT 15SM SKC 24/00 A3012

More Conditions Fewer Conditions

10-Day Weather Forecast

Almanac

Astronomy

Oct. 24, 2014 Rise Set
Actual Time 7:47 AM MDT 6:34 PM MDT
Civil Twilight 7:19 AM MDT 7:02 PM MDT
Nautical Twilight 6:48 AM MDT 7:34 PM MDT
Astronomical Twilight 6:16 AM MDT 8:05 PM MDT
Moon 8:30 AM MDT (10/24) 7:17 PM MDT (10/24)
Length of Visible Light 11h 42m
Length of Day
10h 47m
Tomorrow will be 2m 26s shorter.
New Moon, 1% of the Moon is Illuminated
Today
New Moon
Oct 30
First Quarter
Nov 6
Full
Nov 14
Last Quarter
Nov 22
New

Today's Extremes

State Highs State Lows

Community

WunderPhotos

Upload Photos

1,764,735 photos uploaded!

WunderBlogs® & News

Nearby

Snow Depth

Station Depth Elevation
Cascade Mountain 0 in 7768 ft
Daniels-Strawberry 0 in 8000 ft
Dry Fork 0 in 7160 ft
Smith & Morehouse 0 in 7600 ft
Trial Lake 0 in 9960 ft

Earthquake Activity

City Distance Mag. Time & Date
Ferron, Utah 76 miles 2.5 10:53 PM MDT
2014-10-21
Minimum magnitude displayed is 2.5.

Coastal Water Temperatures

Place Temperature
No Stations Reporting

Nearby Weather Stations